sensor_id;sensor_type;location;lat;lon;timestamp;temperature;humidity
38902;DHT22;24661;53.566;9.910;2023-07-16T00:01:54;18.60;99.90
38902;DHT22;24661;53.566;9.910;2023-07-16T00:04:20;18.60;99.90
38902;DHT22;24661;53.566;9.910;2023-07-16T00:06:46;18.40;99.90
38902;DHT22;24661;53.566;9.910;2023-07-16T00:09:11;18.40;99.90
38902;DHT22;24661;53.566;9.910;2023-07-16T00:11:37;18.30;99.90
38902;DHT22;24661;53.566;9.910;2023-07-16T00:14:03;18.20;99.90
38902;DHT22;24661;53.566;9.910;2023-07-16T00:16:28;18.20;99.90
38902;DHT22;24661;53.566;9.910;2023-07-16T00:18:54;18.20;99.90
38902;DHT22;24661;53.566;9.910;2023-07-16T00:21:20;18.20;99.90
38902;DHT22;24661;53.566;9.910;2023-07-16T00:23:45;18.20;99.90
38902;DHT22;24661;53.566;9.910;2023-07-16T00:26:12;18.10;99.90
38902;DHT22;24661;53.566;9.910;2023-07-16T00:28:38;18.20;99.90
38902;DHT22;24661;53.566;9.910;2023-07-16T00:31:04;18.20;99.90
38902;DHT22;24661;53.566;9.910;2023-07-16T00:33:29;18.20;99.90
38902;DHT22;24661;53.566;9.910;2023-07-16T00:35:55;18.20;99.90
38902;DHT22;24661;53.566;9.910;2023-07-16T00:38:21;18.20;99.90
38902;DHT22;24661;53.566;9.910;2023-07-16T00:40:47;18.20;99.90
38902;DHT22;24661;53.566;9.910;2023-07-16T00:43:13;18.20;99.90
38902;DHT22;24661;53.566;9.910;2023-07-16T00:45:40;18.20;99.90
38902;DHT22;24661;53.566;9.910;2023-07-16T00:48:06;18.20;99.90
38902;DHT22;24661;53.566;9.910;2023-07-16T00:50:33;18.30;99.90
38902;DHT22;24661;53.566;9.910;2023-07-16T00:53:01;18.30;99.90
38902;DHT22;24661;53.566;9.910;2023-07-16T00:55:28;18.30;99.90
38902;DHT22;24661;53.566;9.910;2023-07-16T00:57:54;18.30;99.90
38902;DHT22;24661;53.566;9.910;2023-07-16T01:00:21;18.40;99.90
38902;DHT22;24661;53.566;9.910;2023-07-16T01:02:47;18.40;99.90
38902;DHT22;24661;53.566;9.910;2023-07-16T01:05:12;18.40;99.90
38902;DHT22;24661;53.566;9.910;2023-07-16T01:07:42;18.50;99.90
38902;DHT22;24661;53.566;9.910;2023-07-16T01:10:12;18.50;99.90
38902;DHT22;24661;53.566;9.910;2023-07-16T01:12:38;18.50;99.90
38902;DHT22;24661;53.566;9.910;2023-07-16T01:15:04;18.50;99.90
38902;DHT22;24661;53.566;9.910;2023-07-16T01:17:30;18.50;99.90
38902;DHT22;24661;53.566;9.910;2023-07-16T01:19:55;18.50;99.90
38902;DHT22;24661;53.566;9.910;2023-07-16T01:22:28;18.50;99.90
38902;DHT22;24661;53.566;9.910;2023-07-16T01:30:58;18.60;99.90
38902;DHT22;24661;53.566;9.910;2023-07-16T01:33:25;18.60;99.90
38902;DHT22;24661;53.566;9.910;2023-07-16T01:35:52;18.60;99.90
38902;DHT22;24661;53.566;9.910;2023-07-16T01:38:18;18.50;99.90
38902;DHT22;24661;53.566;9.910;2023-07-16T01:40:44;18.60;99.90
38902;DHT22;24661;53.566;9.910;2023-07-16T01:43:09;18.60;99.90
38902;DHT22;24661;53.566;9.910;2023-07-16T01:45:35;18.60;99.90
38902;DHT22;24661;53.566;9.910;2023-07-16T01:50:35;18.70;99.90
38902;DHT22;24661;53.566;9.910;2023-07-16T01:53:00;18.50;99.90
38902;DHT22;24661;53.566;9.910;2023-07-16T01:55:26;18.60;99.90
38902;DHT22;24661;53.566;9.910;2023-07-16T01:57:51;18.60;99.90
38902;DHT22;24661;53.566;9.910;2023-07-16T02:00:17;18.50;99.90
38902;DHT22;24661;53.566;9.910;2023-07-16T02:02:43;18.50;99.90
38902;DHT22;24661;53.566;9.910;2023-07-16T02:05:08;18.50;99.90
38902;DHT22;24661;53.566;9.910;2023-07-16T02:07:34;18.50;99.90
38902;DHT22;24661;53.566;9.910;2023-07-16T02:09:59;18.70;99.90
38902;DHT22;24661;53.566;9.910;2023-07-16T02:12:25;18.50;99.90
38902;DHT22;24661;53.566;9.910;2023-07-16T02:14:51;18.50;99.90
38902;DHT22;24661;53.566;9.910;2023-07-16T02:17:16;18.50;99.90
38902;DHT22;24661;53.566;9.910;2023-07-16T02:19:42;18.50;99.90
38902;DHT22;24661;53.566;9.910;2023-07-16T02:22:07;18.50;99.90
38902;DHT22;24661;53.566;9.910;2023-07-16T02:24:33;18.50;99.90
38902;DHT22;24661;53.566;9.910;2023-07-16T02:26:59;18.40;99.90
38902;DHT22;24661;53.566;9.910;2023-07-16T02:29:24;18.40;99.90
38902;DHT22;24661;53.566;9.910;2023-07-16T02:31:50;18.30;99.90
38902;DHT22;24661;53.566;9.910;2023-07-16T02:34:15;18.40;99.90
38902;DHT22;24661;53.566;9.910;2023-07-16T02:36:41;18.30;99.90
38902;DHT22;24661;53.566;9.910;2023-07-16T02:39:06;18.30;99.90
38902;DHT22;24661;53.566;9.910;2023-07-16T02:41:32;18.20;99.90
38902;DHT22;24661;53.566;9.910;2023-07-16T02:44:03;18.20;99.90
38902;DHT22;24661;53.566;9.910;2023-07-16T02:46:28;18.10;99.90
38902;DHT22;24661;53.566;9.910;2023-07-16T02:48:54;18.10;99.90
38902;DHT22;24661;53.566;9.910;2023-07-16T02:51:19;18.10;99.90
38902;DHT22;24661;53.566;9.910;2023-07-16T02:53:45;18.10;99.90
38902;DHT22;24661;53.566;9.910;2023-07-16T02:56:11;18.10;99.90
38902;DHT22;24661;53.566;9.910;2023-07-16T02:58:36;18.20;99.90
38902;DHT22;24661;53.566;9.910;2023-07-16T03:01:02;18.20;99.90
38902;DHT22;24661;53.566;9.910;2023-07-16T03:03:27;18.20;99.90
38902;DHT22;24661;53.566;9.910;2023-07-16T03:05:54;18.20;99.90
38902;DHT22;24661;53.566;9.910;2023-07-16T03:08:20;18.20;99.90
38902;DHT22;24661;53.566;9.910;2023-07-16T03:10:45;18.30;99.90
38902;DHT22;24661;53.566;9.910;2023-07-16T03:13:11;18.30;99.90
38902;DHT22;24661;53.566;9.910;2023-07-16T03:15:36;18.20;99.90
38902;DHT22;24661;53.566;9.910;2023-07-16T03:18:02;18.20;99.90
38902;DHT22;24661;53.566;9.910;2023-07-16T03:20:28;18.20;99.90
38902;DHT22;24661;53.566;9.910;2023-07-16T03:22:53;18.20;99.90
38902;DHT22;24661;53.566;9.910;2023-07-16T03:25:19;18.20;99.90
38902;DHT22;24661;53.566;9.910;2023-07-16T03:27:44;18.20;99.90
38902;DHT22;24661;53.566;9.910;2023-07-16T03:30:10;18.20;99.90
38902;DHT22;24661;53.566;9.910;2023-07-16T03:32:36;18.20;99.90
38902;DHT22;24661;53.566;9.910;2023-07-16T03:35:01;18.20;99.90
38902;DHT22;24661;53.566;9.910;2023-07-16T03:37:27;18.20;99.90
38902;DHT22;24661;53.566;9.910;2023-07-16T03:39:52;18.20;99.90
38902;DHT22;24661;53.566;9.910;2023-07-16T03:42:18;18.20;99.90
38902;DHT22;24661;53.566;9.910;2023-07-16T03:44:44;18.20;99.90
38902;DHT22;24661;53.566;9.910;2023-07-16T03:47:10;18.20;99.90
38902;DHT22;24661;53.566;9.910;2023-07-16T03:49:35;18.10;99.90
38902;DHT22;24661;53.566;9.910;2023-07-16T03:52:01;18.00;99.90
38902;DHT22;24661;53.566;9.910;2023-07-16T03:54:27;18.00;99.90
38902;DHT22;24661;53.566;9.910;2023-07-16T03:56:52;17.90;99.90
38902;DHT22;24661;53.566;9.910;2023-07-16T03:59:18;17.90;99.90
38902;DHT22;24661;53.566;9.910;2023-07-16T04:01:43;17.90;99.90
38902;DHT22;24661;53.566;9.910;2023-07-16T04:04:09;17.90;99.90
38902;DHT22;24661;53.566;9.910;2023-07-16T04:06:34;17.90;99.90
38902;DHT22;24661;53.566;9.910;2023-07-16T04:09:00;17.90;99.90
38902;DHT22;24661;53.566;9.910;2023-07-16T04:11:25;18.00;99.90
38902;DHT22;24661;53.566;9.910;2023-07-16T04:13:51;18.00;99.90
38902;DHT22;24661;53.566;9.910;2023-07-16T04:16:16;18.00;99.90
38902;DHT22;24661;53.566;9.910;2023-07-16T04:18:42;18.00;99.90
38902;DHT22;24661;53.566;9.910;2023-07-16T04:21:07;18.00;99.90
38902;DHT22;24661;53.566;9.910;2023-07-16T04:23:33;18.00;99.90
38902;DHT22;24661;53.566;9.910;2023-07-16T04:25:58;18.00;99.90
38902;DHT22;24661;53.566;9.910;2023-07-16T04:28:24;18.10;99.90
38902;DHT22;24661;53.566;9.910;2023-07-16T04:30:49;18.10;99.90
38902;DHT22;24661;53.566;9.910;2023-07-16T04:33:15;18.20;99.90
38902;DHT22;24661;53.566;9.910;2023-07-16T04:35:40;18.20;99.90
38902;DHT22;24661;53.566;9.910;2023-07-16T04:38:06;18.40;99.90
38902;DHT22;24661;53.566;9.910;2023-07-16T04:40:33;18.50;99.90
38902;DHT22;24661;53.566;9.910;2023-07-16T04:42:59;18.40;99.90
38902;DHT22;24661;53.566;9.910;2023-07-16T04:45:24;18.70;99.90
38902;DHT22;24661;53.566;9.910;2023-07-16T04:47:50;18.60;99.90
38902;DHT22;24661;53.566;9.910;2023-07-16T04:50:15;18.80;99.90
38902;DHT22;24661;53.566;9.910;2023-07-16T04:52:41;18.80;99.90
38902;DHT22;24661;53.566;9.910;2023-07-16T04:55:07;18.80;99.90
38902;DHT22;24661;53.566;9.910;2023-07-16T04:57:33;18.90;99.90
38902;DHT22;24661;53.566;9.910;2023-07-16T04:59:59;18.90;99.90
38902;DHT22;24661;53.566;9.910;2023-07-16T05:02:24;18.90;99.90
38902;DHT22;24661;53.566;9.910;2023-07-16T05:04:50;18.90;99.90
38902;DHT22;24661;53.566;9.910;2023-07-16T05:07:16;19.00;99.90
38902;DHT22;24661;53.566;9.910;2023-07-16T05:09:42;18.50;99.90
38902;DHT22;24661;53.566;9.910;2023-07-16T05:12:08;19.10;99.90
38902;DHT22;24661;53.566;9.910;2023-07-16T05:14:43;19.20;99.90
38902;DHT22;24661;53.566;9.910;2023-07-16T05:17:10;19.30;99.90
38902;DHT22;24661;53.566;9.910;2023-07-16T05:19:35;19.30;99.90
38902;DHT22;24661;53.566;9.910;2023-07-16T05:22:01;19.40;99.90
38902;DHT22;24661;53.566;9.910;2023-07-16T05:24:27;19.30;99.90
38902;DHT22;24661;53.566;9.910;2023-07-16T05:26:52;19.30;99.90
38902;DHT22;24661;53.566;9.910;2023-07-16T05:29:19;19.30;99.90
38902;DHT22;24661;53.566;9.910;2023-07-16T05:31:45;19.30;99.90
38902;DHT22;24661;53.566;9.910;2023-07-16T05:34:12;19.30;99.90
38902;DHT22;24661;53.566;9.910;2023-07-16T05:36:37;19.30;99.90
38902;DHT22;24661;53.566;9.910;2023-07-16T05:39:03;19.20;99.90
38902;DHT22;24661;53.566;9.910;2023-07-16T05:41:28;19.30;99.90
38902;DHT22;24661;53.566;9.910;2023-07-16T05:43:54;19.30;99.90
38902;DHT22;24661;53.566;9.910;2023-07-16T05:46:19;19.30;99.90
38902;DHT22;24661;53.566;9.910;2023-07-16T05:48:45;19.30;99.90
38902;DHT22;24661;53.566;9.910;2023-07-16T05:51:10;19.40;99.90
38902;DHT22;24661;53.566;9.910;2023-07-16T05:53:36;19.40;99.90
38902;DHT22;24661;53.566;9.910;2023-07-16T05:56:02;19.40;99.90
38902;DHT22;24661;53.566;9.910;2023-07-16T05:58:28;19.40;99.90
38902;DHT22;24661;53.566;9.910;2023-07-16T06:00:54;19.40;99.90
38902;DHT22;24661;53.566;9.910;2023-07-16T06:03:20;19.50;99.90
38902;DHT22;24661;53.566;9.910;2023-07-16T06:05:45;19.50;99.90
38902;DHT22;24661;53.566;9.910;2023-07-16T06:08:11;19.50;99.90
38902;DHT22;24661;53.566;9.910;2023-07-16T06:10:37;19.60;99.90
38902;DHT22;24661;53.566;9.910;2023-07-16T06:13:04;19.60;99.90
38902;DHT22;24661;53.566;9.910;2023-07-16T06:15:29;19.60;99.90
38902;DHT22;24661;53.566;9.910;2023-07-16T06:17:55;19.70;99.90
38902;DHT22;24661;53.566;9.910;2023-07-16T06:20:21;19.70;99.90
38902;DHT22;24661;53.566;9.910;2023-07-16T06:22:46;19.70;99.90
38902;DHT22;24661;53.566;9.910;2023-07-16T06:25:12;19.70;99.90
38902;DHT22;24661;53.566;9.910;2023-07-16T06:27:38;19.80;99.90
38902;DHT22;24661;53.566;9.910;2023-07-16T06:30:04;19.80;99.90
38902;DHT22;24661;53.566;9.910;2023-07-16T06:32:31;19.90;99.90
38902;DHT22;24661;53.566;9.910;2023-07-16T06:34:56;19.90;99.90
38902;DHT22;24661;53.566;9.910;2023-07-16T06:37:22;19.90;99.90
38902;DHT22;24661;53.566;9.910;2023-07-16T06:39:49;20.00;99.90
38902;DHT22;24661;53.566;9.910;2023-07-16T06:42:15;20.00;99.90
38902;DHT22;24661;53.566;9.910;2023-07-16T06:44:41;20.00;99.90
38902;DHT22;24661;53.566;9.910;2023-07-16T06:47:06;20.10;99.90
38902;DHT22;24661;53.566;9.910;2023-07-16T06:49:32;20.10;99.90
38902;DHT22;24661;53.566;9.910;2023-07-16T06:52:00;20.10;99.90
38902;DHT22;24661;53.566;9.910;2023-07-16T06:54:25;20.20;99.90
38902;DHT22;24661;53.566;9.910;2023-07-16T06:56:51;20.20;99.90
38902;DHT22;24661;53.566;9.910;2023-07-16T06:59:16;20.20;99.90
38902;DHT22;24661;53.566;9.910;2023-07-16T07:01:42;20.30;99.90
38902;DHT22;24661;53.566;9.910;2023-07-16T07:04:08;20.30;99.90
38902;DHT22;24661;53.566;9.910;2023-07-16T07:06:34;20.40;99.90
38902;DHT22;24661;53.566;9.910;2023-07-16T07:08:59;20.40;99.90
38902;DHT22;24661;53.566;9.910;2023-07-16T07:11:25;20.30;99.90
38902;DHT22;24661;53.566;9.910;2023-07-16T07:13:52;20.40;99.90
38902;DHT22;24661;53.566;9.910;2023-07-16T07:16:18;20.50;99.90
38902;DHT22;24661;53.566;9.910;2023-07-16T07:18:43;20.50;99.90
38902;DHT22;24661;53.566;9.910;2023-07-16T07:21:09;19.50;99.90
38902;DHT22;24661;53.566;9.910;2023-07-16T07:23:34;20.70;99.90
38902;DHT22;24661;53.566;9.910;2023-07-16T07:26:00;20.70;99.90
38902;DHT22;24661;53.566;9.910;2023-07-16T07:28:26;20.70;99.90
38902;DHT22;24661;53.566;9.910;2023-07-16T07:30:52;20.70;99.90
38902;DHT22;24661;53.566;9.910;2023-07-16T07:33:17;20.70;99.90
38902;DHT22;24661;53.566;9.910;2023-07-16T07:35:43;20.80;99.90
38902;DHT22;24661;53.566;9.910;2023-07-16T07:38:08;20.90;99.90
38902;DHT22;24661;53.566;9.910;2023-07-16T07:40:34;21.00;99.90
38902;DHT22;24661;53.566;9.910;2023-07-16T07:43:00;21.00;99.90
38902;DHT22;24661;53.566;9.910;2023-07-16T07:45:26;20.80;99.90
38902;DHT22;24661;53.566;9.910;2023-07-16T07:47:51;20.70;99.90
38902;DHT22;24661;53.566;9.910;2023-07-16T07:50:17;20.80;99.90
38902;DHT22;24661;53.566;9.910;2023-07-16T07:52:43;20.80;99.90
38902;DHT22;24661;53.566;9.910;2023-07-16T07:55:09;20.80;99.90
38902;DHT22;24661;53.566;9.910;2023-07-16T07:57:35;20.90;99.90
38902;DHT22;24661;53.566;9.910;2023-07-16T08:00:01;21.00;99.90
38902;DHT22;24661;53.566;9.910;2023-07-16T08:02:26;21.10;99.90
38902;DHT22;24661;53.566;9.910;2023-07-16T08:04:55;21.30;99.90
38902;DHT22;24661;53.566;9.910;2023-07-16T08:07:22;21.60;99.90
38902;DHT22;24661;53.566;9.910;2023-07-16T08:09:48;21.70;99.90
38902;DHT22;24661;53.566;9.910;2023-07-16T08:12:14;21.70;99.90
38902;DHT22;24661;53.566;9.910;2023-07-16T08:14:40;21.70;99.90
38902;DHT22;24661;53.566;9.910;2023-07-16T08:17:06;21.80;99.90
38902;DHT22;24661;53.566;9.910;2023-07-16T08:19:32;21.90;99.90
38902;DHT22;24661;53.566;9.910;2023-07-16T08:21:58;22.00;99.90
38902;DHT22;24661;53.566;9.910;2023-07-16T08:24:24;22.00;99.90
38902;DHT22;24661;53.566;9.910;2023-07-16T08:26:50;22.10;99.90
38902;DHT22;24661;53.566;9.910;2023-07-16T08:29:16;22.10;99.90
38902;DHT22;24661;53.566;9.910;2023-07-16T08:31:41;22.10;99.90
38902;DHT22;24661;53.566;9.910;2023-07-16T08:34:07;22.00;99.90
38902;DHT22;24661;53.566;9.910;2023-07-16T08:36:33;22.00;99.90
38902;DHT22;24661;53.566;9.910;2023-07-16T08:38:59;21.90;99.90
38902;DHT22;24661;53.566;9.910;2023-07-16T08:41:25;21.90;99.90
38902;DHT22;24661;53.566;9.910;2023-07-16T08:43:51;21.90;99.90
38902;DHT22;24661;53.566;9.910;2023-07-16T08:46:17;21.90;99.90
38902;DHT22;24661;53.566;9.910;2023-07-16T08:48:43;21.80;99.90
38902;DHT22;24661;53.566;9.910;2023-07-16T08:51:10;21.70;99.90
38902;DHT22;24661;53.566;9.910;2023-07-16T08:53:36;21.70;99.90
38902;DHT22;24661;53.566;9.910;2023-07-16T08:56:02;21.90;99.90
38902;DHT22;24661;53.566;9.910;2023-07-16T08:58:30;22.00;99.90
38902;DHT22;24661;53.566;9.910;2023-07-16T09:00:56;22.00;99.90
38902;DHT22;24661;53.566;9.910;2023-07-16T09:03:22;21.90;99.90
38902;DHT22;24661;53.566;9.910;2023-07-16T09:05:48;22.00;99.90
38902;DHT22;24661;53.566;9.910;2023-07-16T09:08:14;22.00;99.90
38902;DHT22;24661;53.566;9.910;2023-07-16T09:10:40;22.00;99.90
38902;DHT22;24661;53.566;9.910;2023-07-16T09:13:06;21.90;99.90
38902;DHT22;24661;53.566;9.910;2023-07-16T09:15:32;22.00;99.90
38902;DHT22;24661;53.566;9.910;2023-07-16T09:18:00;22.10;99.90
38902;DHT22;24661;53.566;9.910;2023-07-16T09:20:26;22.10;99.90
38902;DHT22;24661;53.566;9.910;2023-07-16T09:22:56;22.20;99.90
38902;DHT22;24661;53.566;9.910;2023-07-16T09:25:29;22.30;99.90
38902;DHT22;24661;53.566;9.910;2023-07-16T09:27:54;22.30;99.90
38902;DHT22;24661;53.566;9.910;2023-07-16T09:30:20;22.40;99.90
38902;DHT22;24661;53.566;9.910;2023-07-16T09:32:46;22.40;99.90
38902;DHT22;24661;53.566;9.910;2023-07-16T09:35:16;22.50;99.90
38902;DHT22;24661;53.566;9.910;2023-07-16T09:37:42;22.40;99.90
38902;DHT22;24661;53.566;9.910;2023-07-16T09:40:10;22.50;99.90
38902;DHT22;24661;53.566;9.910;2023-07-16T09:42:41;22.60;99.90
38902;DHT22;24661;53.566;9.910;2023-07-16T09:45:18;22.80;99.90
38902;DHT22;24661;53.566;9.910;2023-07-16T09:47:44;22.80;99.90
38902;DHT22;24661;53.566;9.910;2023-07-16T09:50:10;22.70;99.90
38902;DHT22;24661;53.566;9.910;2023-07-16T09:52:37;22.70;99.90
38902;DHT22;24661;53.566;9.910;2023-07-16T09:55:05;22.50;99.90
38902;DHT22;24661;53.566;9.910;2023-07-16T09:57:35;22.30;99.90
38902;DHT22;24661;53.566;9.910;2023-07-16T10:00:03;22.40;99.90
38902;DHT22;24661;53.566;9.910;2023-07-16T10:02:34;22.40;99.90
38902;DHT22;24661;53.566;9.910;2023-07-16T10:07:39;22.30;99.90
38902;DHT22;24661;53.566;9.910;2023-07-16T10:10:08;22.30;99.90
38902;DHT22;24661;53.566;9.910;2023-07-16T10:12:35;22.40;99.90
38902;DHT22;24661;53.566;9.910;2023-07-16T10:15:01;22.50;99.90
38902;DHT22;24661;53.566;9.910;2023-07-16T10:17:30;22.50;99.90
38902;DHT22;24661;53.566;9.910;2023-07-16T10:22:54;22.40;99.90
38902;DHT22;24661;53.566;9.910;2023-07-16T10:27:47;22.30;99.90
38902;DHT22;24661;53.566;9.910;2023-07-16T10:30:13;22.20;99.90
38902;DHT22;24661;53.566;9.910;2023-07-16T10:32:39;22.30;99.90
38902;DHT22;24661;53.566;9.910;2023-07-16T10:35:07;22.20;99.90
38902;DHT22;24661;53.566;9.910;2023-07-16T10:37:36;22.40;99.90
38902;DHT22;24661;53.566;9.910;2023-07-16T10:40:03;22.60;99.90
38902;DHT22;24661;53.566;9.910;2023-07-16T10:42:29;22.80;99.90
38902;DHT22;24661;53.566;9.910;2023-07-16T10:44:59;22.90;99.90
38902;DHT22;24661;53.566;9.910;2023-07-16T10:47:54;22.90;99.90
38902;DHT22;24661;53.566;9.910;2023-07-16T10:50:20;22.80;99.90
38902;DHT22;24661;53.566;9.910;2023-07-16T10:52:52;22.70;99.90
38902;DHT22;24661;53.566;9.910;2023-07-16T10:55:19;22.70;99.90
38902;DHT22;24661;53.566;9.910;2023-07-16T10:57:47;22.80;99.90
38902;DHT22;24661;53.566;9.910;2023-07-16T11:00:13;22.90;99.90
38902;DHT22;24661;53.566;9.910;2023-07-16T11:02:40;23.00;99.90
38902;DHT22;24661;53.566;9.910;2023-07-16T11:05:10;23.10;99.90
38902;DHT22;24661;53.566;9.910;2023-07-16T11:07:35;23.00;99.90
38902;DHT22;24661;53.566;9.910;2023-07-16T11:10:01;22.90;99.90
38902;DHT22;24661;53.566;9.910;2023-07-16T11:12:28;23.00;99.90
38902;DHT22;24661;53.566;9.910;2023-07-16T11:14:55;23.10;99.90
38902;DHT22;24661;53.566;9.910;2023-07-16T11:17:22;23.20;99.90
38902;DHT22;24661;53.566;9.910;2023-07-16T11:19:48;23.20;99.90
38902;DHT22;24661;53.566;9.910;2023-07-16T11:22:15;23.10;99.90
38902;DHT22;24661;53.566;9.910;2023-07-16T11:24:49;23.10;99.90
38902;DHT22;24661;53.566;9.910;2023-07-16T11:27:21;23.20;99.90
38902;DHT22;24661;53.566;9.910;2023-07-16T11:29:55;23.20;99.90
38902;DHT22;24661;53.566;9.910;2023-07-16T11:32:34;23.30;99.90
38902;DHT22;24661;53.566;9.910;2023-07-16T11:35:02;23.30;99.90
38902;DHT22;24661;53.566;9.910;2023-07-16T11:37:30;23.30;99.90
38902;DHT22;24661;53.566;9.910;2023-07-16T11:40:06;23.40;99.90
38902;DHT22;24661;53.566;9.910;2023-07-16T11:42:34;23.50;99.90
38902;DHT22;24661;53.566;9.910;2023-07-16T11:45:00;23.60;99.90
38902;DHT22;24661;53.566;9.910;2023-07-16T11:47:27;23.70;99.90
38902;DHT22;24661;53.566;9.910;2023-07-16T11:49:53;23.70;99.90
38902;DHT22;24661;53.566;9.910;2023-07-16T11:52:20;23.60;99.90
38902;DHT22;24661;53.566;9.910;2023-07-16T11:54:47;23.70;99.90
38902;DHT22;24661;53.566;9.910;2023-07-16T11:57:12;23.70;99.90
38902;DHT22;24661;53.566;9.910;2023-07-16T11:59:38;23.60;99.90
38902;DHT22;24661;53.566;9.910;2023-07-16T12:02:03;23.70;99.90
38902;DHT22;24661;53.566;9.910;2023-07-16T12:04:29;23.70;99.90
38902;DHT22;24661;53.566;9.910;2023-07-16T12:06:55;23.70;99.90
38902;DHT22;24661;53.566;9.910;2023-07-16T12:09:21;23.50;99.90
38902;DHT22;24661;53.566;9.910;2023-07-16T12:11:46;23.20;99.90
38902;DHT22;24661;53.566;9.910;2023-07-16T12:14:12;23.20;99.90
38902;DHT22;24661;53.566;9.910;2023-07-16T12:16:38;23.10;99.90
38902;DHT22;24661;53.566;9.910;2023-07-16T12:19:05;23.30;99.90
38902;DHT22;24661;53.566;9.910;2023-07-16T12:21:31;23.50;99.90
38902;DHT22;24661;53.566;9.910;2023-07-16T12:23:56;23.70;99.90
38902;DHT22;24661;53.566;9.910;2023-07-16T12:26:22;23.70;99.90
38902;DHT22;24661;53.566;9.910;2023-07-16T12:28:47;23.80;99.90
38902;DHT22;24661;53.566;9.910;2023-07-16T12:31:13;23.90;99.90
38902;DHT22;24661;53.566;9.910;2023-07-16T12:33:39;24.00;99.90
38902;DHT22;24661;53.566;9.910;2023-07-16T12:36:05;23.90;99.90
38902;DHT22;24661;53.566;9.910;2023-07-16T12:38:30;23.80;99.90
38902;DHT22;24661;53.566;9.910;2023-07-16T12:40:56;23.80;99.90
38902;DHT22;24661;53.566;9.910;2023-07-16T12:43:21;23.70;99.90
38902;DHT22;24661;53.566;9.910;2023-07-16T12:45:47;23.70;99.90
38902;DHT22;24661;53.566;9.910;2023-07-16T12:48:12;23.90;99.90
38902;DHT22;24661;53.566;9.910;2023-07-16T12:50:38;24.00;99.90
38902;DHT22;24661;53.566;9.910;2023-07-16T12:53:04;24.10;99.90
38902;DHT22;24661;53.566;9.910;2023-07-16T12:55:29;24.10;99.90
38902;DHT22;24661;53.566;9.910;2023-07-16T12:57:56;24.10;99.90
38902;DHT22;24661;53.566;9.910;2023-07-16T13:00:22;24.00;99.90
38902;DHT22;24661;53.566;9.910;2023-07-16T13:02:48;23.90;99.90
38902;DHT22;24661;53.566;9.910;2023-07-16T13:05:13;24.00;99.90
38902;DHT22;24661;53.566;9.910;2023-07-16T13:07:39;24.20;99.90
38902;DHT22;24661;53.566;9.910;2023-07-16T13:10:05;24.30;99.90
38902;DHT22;24661;53.566;9.910;2023-07-16T13:12:31;24.30;99.90
38902;DHT22;24661;53.566;9.910;2023-07-16T13:14:56;24.30;99.90
38902;DHT22;24661;53.566;9.910;2023-07-16T13:17:22;24.30;99.90
38902;DHT22;24661;53.566;9.910;2023-07-16T13:19:48;24.20;99.90
38902;DHT22;24661;53.566;9.910;2023-07-16T13:22:13;24.20;99.90
38902;DHT22;24661;53.566;9.910;2023-07-16T13:24:39;23.90;99.90
38902;DHT22;24661;53.566;9.910;2023-07-16T13:27:05;23.80;99.90
38902;DHT22;24661;53.566;9.910;2023-07-16T13:29:31;23.70;99.90
38902;DHT22;24661;53.566;9.910;2023-07-16T13:31:56;23.50;99.90
38902;DHT22;24661;53.566;9.910;2023-07-16T13:34:22;23.30;99.90
38902;DHT22;24661;53.566;9.910;2023-07-16T13:36:47;23.40;99.90
38902;DHT22;24661;53.566;9.910;2023-07-16T13:39:13;23.40;99.90
38902;DHT22;24661;53.566;9.910;2023-07-16T13:41:39;23.80;99.90
38902;DHT22;24661;53.566;9.910;2023-07-16T13:44:05;23.80;99.90
38902;DHT22;24661;53.566;9.910;2023-07-16T13:46:30;23.80;99.90
38902;DHT22;24661;53.566;9.910;2023-07-16T13:48:56;24.40;99.90
38902;DHT22;24661;53.566;9.910;2023-07-16T13:51:22;24.00;99.90
38902;DHT22;24661;53.566;9.910;2023-07-16T13:53:48;24.10;99.90
38902;DHT22;24661;53.566;9.910;2023-07-16T13:56:14;24.10;99.90
38902;DHT22;24661;53.566;9.910;2023-07-16T13:58:39;24.00;99.90
38902;DHT22;24661;53.566;9.910;2023-07-16T14:01:05;23.90;99.90
38902;DHT22;24661;53.566;9.910;2023-07-16T14:03:30;23.70;99.90
38902;DHT22;24661;53.566;9.910;2023-07-16T14:05:56;23.50;99.90
38902;DHT22;24661;53.566;9.910;2023-07-16T14:08:22;24.20;99.90
38902;DHT22;24661;53.566;9.910;2023-07-16T14:10:48;23.50;99.90
38902;DHT22;24661;53.566;9.910;2023-07-16T14:13:15;23.50;99.90
38902;DHT22;24661;53.566;9.910;2023-07-16T14:15:42;23.50;99.90
38902;DHT22;24661;53.566;9.910;2023-07-16T14:18:08;23.50;99.90
38902;DHT22;24661;53.566;9.910;2023-07-16T14:20:34;23.50;99.90
38902;DHT22;24661;53.566;9.910;2023-07-16T14:22:59;23.60;99.90
38902;DHT22;24661;53.566;9.910;2023-07-16T14:25:25;23.70;99.90
38902;DHT22;24661;53.566;9.910;2023-07-16T14:27:51;23.60;99.90
38902;DHT22;24661;53.566;9.910;2023-07-16T14:30:16;23.70;99.90
38902;DHT22;24661;53.566;9.910;2023-07-16T14:32:42;23.70;99.90
38902;DHT22;24661;53.566;9.910;2023-07-16T14:35:08;23.70;99.90
38902;DHT22;24661;53.566;9.910;2023-07-16T14:37:34;23.80;99.90
38902;DHT22;24661;53.566;9.910;2023-07-16T14:39:59;23.90;99.90
38902;DHT22;24661;53.566;9.910;2023-07-16T14:42:25;24.00;99.90
38902;DHT22;24661;53.566;9.910;2023-07-16T14:44:50;24.00;99.90
38902;DHT22;24661;53.566;9.910;2023-07-16T14:47:17;24.00;99.90
38902;DHT22;24661;53.566;9.910;2023-07-16T14:49:43;23.90;99.90
38902;DHT22;24661;53.566;9.910;2023-07-16T14:52:08;23.90;99.90
38902;DHT22;24661;53.566;9.910;2023-07-16T14:54:34;23.90;99.90
38902;DHT22;24661;53.566;9.910;2023-07-16T14:57:01;23.90;99.90
38902;DHT22;24661;53.566;9.910;2023-07-16T14:59:28;23.90;99.90
38902;DHT22;24661;53.566;9.910;2023-07-16T15:01:54;24.10;99.90
38902;DHT22;24661;53.566;9.910;2023-07-16T15:04:19;24.10;99.90
38902;DHT22;24661;53.566;9.910;2023-07-16T15:06:45;24.00;99.90
38902;DHT22;24661;53.566;9.910;2023-07-16T15:09:11;23.90;99.90
38902;DHT22;24661;53.566;9.910;2023-07-16T15:11:39;23.90;99.90
38902;DHT22;24661;53.566;9.910;2023-07-16T15:14:04;23.80;99.90
38902;DHT22;24661;53.566;9.910;2023-07-16T15:16:30;23.80;99.90
38902;DHT22;24661;53.566;9.910;2023-07-16T15:18:55;23.70;99.90
38902;DHT22;24661;53.566;9.910;2023-07-16T15:21:21;23.60;99.90
38902;DHT22;24661;53.566;9.910;2023-07-16T15:23:47;23.40;99.90
38902;DHT22;24661;53.566;9.910;2023-07-16T15:26:12;23.40;99.90
38902;DHT22;24661;53.566;9.910;2023-07-16T15:28:39;23.40;99.90
38902;DHT22;24661;53.566;9.910;2023-07-16T15:31:07;23.40;99.90
38902;DHT22;24661;53.566;9.910;2023-07-16T15:33:32;23.30;99.90
38902;DHT22;24661;53.566;9.910;2023-07-16T15:35:59;23.30;99.90
38902;DHT22;24661;53.566;9.910;2023-07-16T15:38:24;23.20;99.90
38902;DHT22;24661;53.566;9.910;2023-07-16T15:40:52;23.20;99.90